Time;durP1;ratioP1;P1;durP2;ratioP2;P2;SDS_P1;SDS_P2;PMS_P1;PMS_P2;Temp;Humidity;BMP_temperature;BMP_pressure;BME280_temperature;BME280_humidity;BME280_pressure;Samples;Min_cycle;Max_cycle;Signal;HPM_P1;HPM_P2
2023/03/31 00:00:10;;;;;;;;;;;;;;;10.72;100.00;99763.91;5104187;28;20010;-82
2023/03/31 00:02:36;;;;;;;;;;;;;;;10.70;100.00;99764.03;5105906;28;19916;-82
2023/03/31 00:05:02;;;;;;;;;;;;;;;10.68;100.00;99765.97;5107626;28;19920;-84
2023/03/31 00:07:27;;;;;;;;;;;;;;;10.68;100.00;99779.19;5107017;28;20047;-84
2023/03/31 00:09:54;;;;;;;;;;;;;;;10.62;100.00;99788.47;5103293;28;19920;-83
2023/03/31 00:12:19;;;;;;;;;;;;;;;10.61;100.00;99788.59;5087603;28;19924;-82
2023/03/31 00:14:46;;;;;;;;;;;;;;;10.55;100.00;99791.78;5105663;28;20392;-81
2023/03/31 00:17:11;;;;;;;;;;;;;;;10.54;100.00;99783.03;5086271;28;19962;-82
2023/03/31 00:19:38;;;;;;;;;;;;;;;10.51;100.00;99774.56;5107905;28;19920;-82
2023/03/31 00:22:04;;;;;;;;;;;;;;;10.47;100.00;99770.56;5104220;28;19927;-81
2023/03/31 00:24:31;;;;;;;;;;;;;;;10.49;100.00;99772.06;5107966;28;19975;-81
2023/03/31 00:27:03;;;;;;;;;;;;;;;10.52;100.00;99770.97;5105065;28;19920;-83
2023/03/31 00:29:30;;;;;;;;;;;;;;;10.40;100.00;99775.53;5109048;28;19923;-82
2023/03/31 00:31:56;;;;;;;;;;;;;;;10.18;100.00;99773.97;5085680;28;20007;-82
2023/03/31 00:34:21;;;;;;;;;;;;;;;10.15;100.00;99768.91;5107042;28;20476;-82
2023/03/31 00:36:46;;;;;;;;;;;;;;;10.04;100.00;99760.28;5085721;28;19920;-82
2023/03/31 00:39:13;;;;;;;;;;;;;;;10.04;100.00;99755.84;5108099;28;19920;-81
2023/03/31 00:41:38;;;;;;;;;;;;;;;10.04;100.00;99749.75;5088729;28;19919;-80
2023/03/31 00:44:05;;;;;;;;;;;;;;;9.99;100.00;99746.66;5105825;28;19939;-81
2023/03/31 00:46:32;;;;;;;;;;;;;;;10.07;100.00;99749.47;5070242;28;19930;-80
2023/03/31 00:48:58;;;;;;;;;;;;;;;10.07;100.00;99741.56;5104364;28;19920;-81
2023/03/31 00:51:28;;;;;;;;;;;;;;;10.10;100.00;99713.13;5103672;28;19931;-81
2023/03/31 00:53:58;;;;;;;;;;;;;;;10.06;100.00;99711.72;5108272;28;20400;-82
2023/03/31 00:56:25;;;;;;;;;;;;;;;10.06;100.00;99722.28;5085343;28;19951;-81
2023/03/31 00:58:52;;;;;;;;;;;;;;;10.14;100.00;99746.16;5105423;28;20033;-82
2023/03/31 01:01:23;;;;;;;;;;;;;;;10.12;100.00;99742.84;5083756;28;19924;-85
2023/03/31 01:03:49;;;;;;;;;;;;;;;10.01;100.00;99734.19;5088086;28;19928;-84
2023/03/31 01:06:18;;;;;;;;;;;;;;;10.00;100.00;99722.81;5104285;28;19920;-83
2023/03/31 01:08:44;;;;;;;;;;;;;;;10.01;100.00;99713.13;5089556;28;19924;-83
2023/03/31 01:11:12;;;;;;;;;;;;;;;9.98;100.00;99719.47;5085009;28;20026;-82
2023/03/31 01:13:40;;;;;;;;;;;;;;;10.00;100.00;99719.34;5106671;28;19923;-83
2023/03/31 01:16:07;;;;;;;;;;;;;;;10.03;100.00;99716.44;5103227;28;19915;-84
2023/03/31 01:18:33;;;;;;;;;;;;;;;10.04;100.00;99708.38;5105071;28;20280;-85
2023/03/31 01:21:05;;;;;;;;;;;;;;;10.02;100.00;99710.31;5105929;28;19923;-85
2023/03/31 01:23:33;;;;;;;;;;;;;;;10.02;100.00;99705.03;5105388;28;19927;-83
2023/03/31 01:26:08;;;;;;;;;;;;;;;10.07;100.00;99702.81;5101489;28;19920;-81
2023/03/31 01:28:36;;;;;;;;;;;;;;;10.10;100.00;99726.31;5104416;28;19928;-86
2023/03/31 01:31:11;;;;;;;;;;;;;;;10.07;100.00;99726.56;5106376;28;19955;-81
2023/03/31 01:33:55;;;;;;;;;;;;;;;10.03;100.00;99721.69;5103853;28;20010;-79
2023/03/31 01:36:39;;;;;;;;;;;;;;;10.01;100.00;99706.03;5079909;28;20014;-83
2023/03/31 01:39:19;;;;;;;;;;;;;;;9.97;100.00;99688.81;5103574;28;19979;-80
2023/03/31 01:41:48;;;;;;;;;;;;;;;9.99;100.00;99689.50;5101756;28;19975;-80
2023/03/31 01:44:23;;;;;;;;;;;;;;;9.97;100.00;99691.44;5106186;28;19996;-81
2023/03/31 01:46:53;;;;;;;;;;;;;;;9.97;100.00;99696.72;5102300;28;19927;-81
2023/03/31 01:49:38;;;;;;;;;;;;;;;9.92;100.00;99688.38;5105566;28;19919;-79
2023/03/31 01:52:24;;;;;;;;;;;;;;;9.95;100.00;99688.13;5087535;28;19928;-80
2023/03/31 01:54:52;;;;;;;;;;;;;;;9.94;100.00;99685.63;5089214;28;19931;-77
2023/03/31 01:57:24;;;;;;;;;;;;;;;10.00;100.00;99675.38;5086682;28;20020;-79
2023/03/31 01:59:50;;;;;;;;;;;;;;;10.06;100.00;99669.56;5104327;28;19962;-80
2023/03/31 02:02:22;;;;;;;;;;;;;;;10.05;100.00;99657.34;5105812;28;19969;-80
2023/03/31 02:04:49;;;;;;;;;;;;;;;10.05;100.00;99661.78;5100070;28;20330;-80
2023/03/31 02:07:20;;;;;;;;;;;;;;;10.09;100.00;99653.44;5087592;28;20296;-80
2023/03/31 02:09:56;;;;;;;;;;;;;;;10.08;100.00;99657.03;5068833;28;19953;-78
2023/03/31 02:12:24;;;;;;;;;;;;;;;10.06;100.00;99659.00;5084065;28;19920;-79
2023/03/31 02:14:51;;;;;;;;;;;;;;;9.98;100.00;99664.13;5086118;28;19927;-80
2023/03/31 02:17:18;;;;;;;;;;;;;;;10.01;100.00;99661.22;5106283;28;19923;-81
2023/03/31 02:19:46;;;;;;;;;;;;;;;9.98;100.00;99655.38;5099213;28;20287;-80
2023/03/31 02:22:12;;;;;;;;;;;;;;;9.92;100.00;99656.75;5102716;28;19942;-81
2023/03/31 02:24:39;;;;;;;;;;;;;;;9.97;100.00;99648.44;5103989;28;19955;-81
2023/03/31 02:27:07;;;;;;;;;;;;;;;9.93;100.00;99653.16;5084495;28;19924;-82
2023/03/31 02:29:33;;;;;;;;;;;;;;;9.92;100.00;99646.22;5087406;28;20355;-81
2023/03/31 02:32:04;;;;;;;;;;;;;;;9.98;100.00;99642.19;5083513;28;20010;-81
2023/03/31 02:34:30;;;;;;;;;;;;;;;9.99;100.00;99651.78;5087438;28;19962;-81
2023/03/31 02:36:57;;;;;;;;;;;;;;;9.95;100.00;99656.50;5102444;28;20028;-80
2023/03/31 02:39:29;;;;;;;;;;;;;;;9.94;100.00;99659.25;5086346;28;19940;-82
2023/03/31 02:41:55;;;;;;;;;;;;;;;9.85;100.00;99651.19;5105723;28;19920;-83
2023/03/31 02:44:21;;;;;;;;;;;;;;;9.92;100.00;99645.38;5086155;28;19931;-81
2023/03/31 02:46:47;;;;;;;;;;;;;;;9.91;100.00;99626.09;5100656;28;19920;-81
2023/03/31 02:49:14;;;;;;;;;;;;;;;9.97;100.00;99633.44;5087096;28;19920;-82
2023/03/31 02:51:42;;;;;;;;;;;;;;;9.97;100.00;99628.16;5102229;28;19923;-84
2023/03/31 02:54:11;;;;;;;;;;;;;;;9.95;100.00;99609.03;5089031;28;19920;-84
2023/03/31 02:57:04;;;;;;;;;;;;;;;9.99;100.00;99606.94;5092635;28;19942;-84
2023/03/31 02:59:32;;;;;;;;;;;;;;;9.91;100.00;99618.19;5089105;28;20379;-84
2023/03/31 03:02:06;;;;;;;;;;;;;;;9.87;100.00;99622.06;5091151;28;19924;-83
2023/03/31 03:04:34;;;;;;;;;;;;;;;9.97;100.00;99612.34;5087508;28;19919;-82
2023/03/31 03:07:00;;;;;;;;;;;;;;;9.96;100.00;99620.38;5086932;28;19994;-81
2023/03/31 03:09:43;;;;;;;;;;;;;;;9.96;100.00;99626.50;5090028;28;19956;-82
2023/03/31 03:12:20;;;;;;;;;;;;;;;9.92;100.00;99619.84;5106020;28;19942;-82
2023/03/31 03:15:08;;;;;;;;;;;;;;;9.96;100.00;99615.97;5088283;28;19969;-80
2023/03/31 03:17:36;;;;;;;;;;;;;;;9.99;100.00;99620.97;5067147;28;19935;-81
2023/03/31 03:20:07;;;;;;;;;;;;;;;9.83;100.00;99631.22;5108564;28;20359;-80
2023/03/31 03:22:32;;;;;;;;;;;;;;;9.80;100.00;99626.22;5105068;28;19927;-78
2023/03/31 03:24:57;;;;;;;;;;;;;;;9.80;100.00;99620.94;5107395;28;19920;-80
2023/03/31 03:27:23;;;;;;;;;;;;;;;9.78;100.00;99628.13;5105754;28;19927;-77
2023/03/31 03:29:48;;;;;;;;;;;;;;;9.78;100.00;99628.13;5090742;28;19920;-78
2023/03/31 03:32:13;;;;;;;;;;;;;;;9.83;100.00;99636.50;5106306;28;19920;-78
2023/03/31 03:34:39;;;;;;;;;;;;;;;9.79;100.00;99635.06;5109653;28;19926;-78
2023/03/31 03:37:04;;;;;;;;;;;;;;;9.77;100.00;99626.50;5104614;28;19927;-78
2023/03/31 03:39:30;;;;;;;;;;;;;;;9.76;100.00;99617.75;5106764;28;19923;-82
2023/03/31 03:41:55;;;;;;;;;;;;;;;9.85;100.00;99613.44;5106469;28;19924;-80
2023/03/31 03:44:20;;;;;;;;;;;;;;;9.86;100.00;99610.69;5108138;28;20056;-81
2023/03/31 03:46:46;;;;;;;;;;;;;;;9.92;100.00;99622.47;5102198;28;19920;-78
2023/03/31 03:49:11;;;;;;;;;;;;;;;9.97;100.00;99607.09;5108667;28;20249;-80
2023/03/31 03:51:36;;;;;;;;;;;;;;;10.01;100.00;99599.75;5104709;28;20024;-80
2023/03/31 03:54:02;;;;;;;;;;;;;;;10.03;100.00;99574.91;5107640;28;19919;-80
2023/03/31 03:56:27;;;;;;;;;;;;;;;10.09;100.00;99561.16;5103843;28;19920;-77
2023/03/31 03:58:53;;;;;;;;;;;;;;;10.09;100.00;99569.06;5107217;28;19919;-80
2023/03/31 04:01:18;;;;;;;;;;;;;;;10.11;100.00;99582.97;5106020;28;20357;-79
2023/03/31 04:03:44;;;;;;;;;;;;;;;10.08;100.00;99582.38;5103867;28;20410;-82
2023/03/31 04:06:09;;;;;;;;;;;;;;;10.07;100.00;99578.91;5098590;28;20364;-81
2023/03/31 04:08:35;;;;;;;;;;;;;;;10.07;100.00;99576.28;5107404;28;19926;-82
2023/03/31 04:11:01;;;;;;;;;;;;;;;10.02;100.00;99583.78;5103940;28;19924;-82
2023/03/31 04:13:26;;;;;;;;;;;;;;;10.03;100.00;99588.06;5107277;28;19980;-80
2023/03/31 04:15:51;;;;;;;;;;;;;;;10.03;100.00;99598.63;5104062;28;19989;-80
2023/03/31 04:18:23;;;;;;;;;;;;;;;10.12;100.00;99611.00;5107313;28;20388;-80
2023/03/31 04:20:53;;;;;;;;;;;;;;;10.11;100.00;99608.50;5105036;28;19977;-78
2023/03/31 04:23:19;;;;;;;;;;;;;;;10.13;100.00;99607.38;5104591;28;20648;-78
2023/03/31 04:25:45;;;;;;;;;;;;;;;10.04;100.00;99599.47;5104853;28;19921;-77
2023/03/31 04:28:13;;;;;;;;;;;;;;;10.02;100.00;99588.22;5106409;28;19938;-82
2023/03/31 04:30:38;;;;;;;;;;;;;;;10.04;100.00;99571.28;5104242;28;19927;-81
2023/03/31 04:33:05;;;;;;;;;;;;;;;10.08;100.00;99561.28;5104798;28;19924;-81
2023/03/31 04:35:47;;;;;;;;;;;;;;;10.08;100.00;99562.13;5087894;28;20298;-80
2023/03/31 04:38:12;;;;;;;;;;;;;;;10.16;100.00;99549.13;5101324;28;20014;-80
2023/03/31 04:40:38;;;;;;;;;;;;;;;10.19;100.00;99559.38;5107031;28;20004;-80
2023/03/31 04:43:04;;;;;;;;;;;;;;;10.24;100.00;99562.44;5103005;28;19967;-81
2023/03/31 04:45:29;;;;;;;;;;;;;;;10.18;100.00;99570.91;5105143;28;19963;-82
2023/03/31 04:47:54;;;;;;;;;;;;;;;10.18;100.00;99565.66;5106003;28;19920;-80
2023/03/31 04:50:20;;;;;;;;;;;;;;;10.24;100.00;99546.63;5104253;28;19919;-79
2023/03/31 04:52:45;;;;;;;;;;;;;;;10.27;100.00;99542.84;5105293;28;19920;-80
2023/03/31 04:55:10;;;;;;;;;;;;;;;10.30;100.00;99553.13;5106421;28;20358;-80
2023/03/31 04:57:36;;;;;;;;;;;;;;;10.23;100.00;99544.97;5105429;28;20417;-78
2023/03/31 05:00:05;;;;;;;;;;;;;;;10.24;100.00;99545.78;5107009;28;19931;-81
2023/03/31 05:02:31;;;;;;;;;;;;;;;10.25;100.00;99537.72;5085423;28;19926;-82
2023/03/31 05:04:56;;;;;;;;;;;;;;;10.21;100.00;99543.41;5106239;28;19920;-83
2023/03/31 05:07:21;;;;;;;;;;;;;;;10.17;100.00;99548.16;5106655;28;19931;-83
2023/03/31 05:09:47;;;;;;;;;;;;;;;10.08;100.00;99550.75;5105296;28;19928;-80
2023/03/31 05:12:12;;;;;;;;;;;;;;;10.00;100.00;99543.56;5083330;28;19969;-84
2023/03/31 05:14:38;;;;;;;;;;;;;;;9.96;100.00;99521.06;5107499;28;19920;-82
2023/03/31 05:17:03;;;;;;;;;;;;;;;9.97;100.00;99512.19;5104158;28;20415;-84
2023/03/31 05:19:29;;;;;;;;;;;;;;;9.84;100.00;99507.19;5105311;28;19931;-85
2023/03/31 05:21:54;;;;;;;;;;;;;;;9.86;100.00;99505.25;5097721;28;19924;-76
2023/03/31 05:24:20;;;;;;;;;;;;;;;9.80;100.00;99499.72;5098999;28;19924;-78
2023/03/31 05:26:50;;;;;;;;;;;;;;;9.69;100.00;99508.59;5097998;28;19931;-74
2023/03/31 05:29:15;;;;;;;;;;;;;;;9.70;100.00;99505.00;5101555;28;19927;-75
2023/03/31 05:31:41;;;;;;;;;;;;;;;9.77;100.00;99521.09;5105697;28;19920;-76
2023/03/31 05:34:06;;;;;;;;;;;;;;;9.88;100.00;99528.84;5101292;28;19924;-76
2023/03/31 05:36:32;;;;;;;;;;;;;;;9.77;100.00;99526.34;5106247;28;19985;-76
2023/03/31 05:38:57;;;;;;;;;;;;;;;9.86;100.00;99510.53;5103794;28;20414;-78
2023/03/31 05:41:22;;;;;;;;;;;;;;;9.85;100.00;99505.38;5104013;28;20383;-76
2023/03/31 05:43:48;;;;;;;;;;;;;;;9.89;100.00;99509.44;5098125;28;19920;-75
2023/03/31 05:46:13;;;;;;;;;;;;;;;9.85;100.00;99494.84;5102549;28;20229;-76
2023/03/31 05:48:38;;;;;;;;;;;;;;;9.76;100.00;99477.25;5105331;28;19996;-76
2023/03/31 05:51:04;;;;;;;;;;;;;;;9.74;100.00;99442.28;5105556;28;19928;-75
2023/03/31 05:53:30;;;;;;;;;;;;;;;9.76;100.00;99435.94;5105612;28;19920;-76
2023/03/31 05:56:00;;;;;;;;;;;;;;;9.74;100.00;99442.28;5105969;28;19919;-77
2023/03/31 05:58:26;;;;;;;;;;;;;;;9.78;100.00;99464.75;5102597;28;20019;-76
2023/03/31 06:01:04;;;;;;;;;;;;;;;9.78;100.00;99485.84;5103900;28;20014;-75
2023/03/31 06:03:31;;;;;;;;;;;;;;;9.69;100.00;99489.31;5098618;28;20375;-74
2023/03/31 06:05:56;;;;;;;;;;;;;;;9.70;100.00;99467.28;5101965;28;20019;-76
2023/03/31 06:08:21;;;;;;;;;;;;;;;9.64;100.00;99483.63;5103459;28;20361;-77
2023/03/31 06:10:46;;;;;;;;;;;;;;;9.66;100.00;99492.25;5101740;28;19996;-79
2023/03/31 06:13:12;;;;;;;;;;;;;;;9.62;100.00;99486.41;5104119;28;19972;-77
2023/03/31 06:15:37;;;;;;;;;;;;;;;9.68;100.00;99479.75;5102985;28;19973;-77
2023/03/31 06:18:03;;;;;;;;;;;;;;;9.61;100.00;99483.88;5098609;28;20060;-78
2023/03/31 06:20:28;;;;;;;;;;;;;;;9.41;100.00;99497.06;5102794;28;19924;-76
2023/03/31 06:22:53;;;;;;;;;;;;;;;9.44;100.00;99504.69;5105168;28;19927;-76
2023/03/31 06:25:19;;;;;;;;;;;;;;;9.39;100.00;99509.53;5102207;28;19928;-77
2023/03/31 06:27:44;;;;;;;;;;;;;;;9.31;100.00;99504.09;5105289;28;19920;-76
2023/03/31 06:30:10;;;;;;;;;;;;;;;9.50;100.00;99486.66;5104587;28;19927;-78
2023/03/31 06:32:35;;;;;;;;;;;;;;;9.67;100.00;99478.06;5109449;28;19926;-78
2023/03/31 06:35:00;;;;;;;;;;;;;;;9.76;100.00;99482.53;5105543;28;20410;-76
2023/03/31 06:37:27;;;;;;;;;;;;;;;9.87;100.00;99479.75;5105248;28;19928;-78
2023/03/31 06:39:52;;;;;;;;;;;;;;;10.00;100.00;99467.09;5105278;28;19924;-77
2023/03/31 06:42:17;;;;;;;;;;;;;;;10.10;100.00;99457.38;5108386;28;19920;-77
2023/03/31 06:44:44;;;;;;;;;;;;;;;10.17;100.00;99450.59;5086675;28;20414;-77
2023/03/31 06:47:10;;;;;;;;;;;;;;;10.29;100.00;99448.63;5109094;28;19919;-77
2023/03/31 06:49:35;;;;;;;;;;;;;;;10.36;100.00;99443.59;5106466;28;20268;-78
2023/03/31 06:52:00;;;;;;;;;;;;;;;10.42;100.00;99443.03;5107899;28;19919;-77
2023/03/31 06:54:26;;;;;;;;;;;;;;;10.51;100.00;99444.78;5106547;28;19960;-77
2023/03/31 06:56:51;;;;;;;;;;;;;;;10.56;100.00;99451.28;5103929;28;19962;-78
2023/03/31 06:59:16;;;;;;;;;;;;;;;10.68;100.00;99449.28;5104318;28;19920;-77
2023/03/31 07:01:42;;;;;;;;;;;;;;;10.67;100.00;99437.06;5108464;28;20050;-79
2023/03/31 07:04:07;;;;;;;;;;;;;;;10.71;100.00;99427.91;5105871;28;19961;-78
2023/03/31 07:06:33;;;;;;;;;;;;;;;10.75;100.00;99409.94;5089500;28;19919;-79
2023/03/31 07:08:58;;;;;;;;;;;;;;;10.85;100.00;99403.63;5106601;28;19919;-78
2023/03/31 07:11:24;;;;;;;;;;;;;;;10.97;100.00;99406.88;5104958;28;19934;-75
2023/03/31 07:13:49;;;;;;;;;;;;;;;11.01;100.00;99401.19;5103970;28;19920;-78
2023/03/31 07:16:14;;;;;;;;;;;;;;;11.07;100.00;99403.19;5102310;28;20370;-75
2023/03/31 07:18:40;;;;;;;;;;;;;;;11.12;100.00;99409.88;5103702;28;20350;-76
2023/03/31 07:21:06;;;;;;;;;;;;;;;11.07;100.00;99419.03;5103805;28;20367;-78
2023/03/31 07:23:32;;;;;;;;;;;;;;;11.07;100.00;99419.03;5102064;28;19955;-79
2023/03/31 07:26:01;;;;;;;;;;;;;;;11.12;100.00;99425.72;5103929;28;20043;-77
2023/03/31 07:28:27;;;;;;;;;;;;;;;11.15;100.00;99441.25;5103044;28;20263;-77
2023/03/31 07:30:53;;;;;;;;;;;;;;;11.19;100.00;99443.44;5104351;28;19985;-76
2023/03/31 07:33:18;;;;;;;;;;;;;;;11.26;100.00;99443.66;5102092;28;20383;-77
2023/03/31 07:35:43;;;;;;;;;;;;;;;11.28;100.00;99433.78;5102695;28;19916;-79
2023/03/31 07:38:09;;;;;;;;;;;;;;;11.31;100.00;99426.38;5104365;28;20011;-78
2023/03/31 07:40:34;;;;;;;;;;;;;;;11.43;100.00;99427.00;5101986;28;19988;-79
2023/03/31 07:43:00;;;;;;;;;;;;;;;11.62;100.00;99424.19;5104484;28;19923;-79
2023/03/31 07:45:26;;;;;;;;;;;;;;;11.77;100.00;99428.00;5100443;28;19924;-78
2023/03/31 07:47:52;;;;;;;;;;;;;;;11.82;100.00;99438.94;5102441;28;20294;-80
2023/03/31 07:50:18;;;;;;;;;;;;;;;11.90;100.00;99446.91;5102631;28;19923;-80
2023/03/31 07:52:44;;;;;;;;;;;;;;;11.96;100.00;99436.75;5074510;28;20287;-80
2023/03/31 07:55:10;;;;;;;;;;;;;;;12.01;100.00;99435.28;5099969;28;20011;-80
2023/03/31 07:57:36;;;;;;;;;;;;;;;12.09;100.00;99431.84;5103692;28;19928;-79
2023/03/31 08:00:06;;;;;;;;;;;;;;;12.16;100.00;99427.59;5104000;28;19934;-79
2023/03/31 08:02:38;;;;;;;;;;;;;;;12.25;100.00;99424.03;5102851;28;19931;-79
2023/03/31 08:05:04;;;;;;;;;;;;;;;12.30;100.00;99434.97;5101893;28;19942;-77
2023/03/31 08:07:32;;;;;;;;;;;;;;;12.35;100.00;99427.41;5102039;28;20433;-79
2023/03/31 08:09:58;;;;;;;;;;;;;;;12.31;100.00;99421.56;5103561;28;19968;-79
2023/03/31 08:12:23;;;;;;;;;;;;;;;12.45;100.00;99428.09;5085356;28;19974;-78
2023/03/31 08:14:48;;;;;;;;;;;;;;;12.48;100.00;99422.50;5104242;28;20332;-78
2023/03/31 08:17:14;;;;;;;;;;;;;;;12.56;100.00;99425.16;5103169;28;19930;-79
2023/03/31 08:19:39;;;;;;;;;;;;;;;12.57;100.00;99426.84;5088839;28;19919;-79
2023/03/31 08:22:04;;;;;;;;;;;;;;;12.61;100.00;99427.34;5103094;28;19935;-79
2023/03/31 08:24:30;;;;;;;;;;;;;;;12.67;100.00;99414.28;5107535;28;19927;-79
2023/03/31 08:26:55;;;;;;;;;;;;;;;12.60;100.00;99410.66;5103083;28;19932;-79
2023/03/31 08:29:21;;;;;;;;;;;;;;;12.69;100.00;99414.97;5106332;28;19987;-78
2023/03/31 08:31:46;;;;;;;;;;;;;;;12.84;100.00;99411.72;5104301;28;19920;-79
2023/03/31 08:34:11;;;;;;;;;;;;;;;12.90;100.00;99411.09;5106736;28;19933;-79
2023/03/31 08:36:37;;;;;;;;;;;;;;;12.90;100.00;99411.88;5103085;28;20022;-79
2023/03/31 08:39:03;;;;;;;;;;;;;;;12.99;100.00;99407.47;5106473;28;19962;-79
2023/03/31 08:41:55;;;;;;;;;;;;;;;13.04;100.00;99402.50;5084294;28;20655;-78
2023/03/31 08:44:25;;;;;;;;;;;;;;;13.21;100.00;99380.38;5074655;28;19964;-80
2023/03/31 08:46:52;;;;;;;;;;;;;;;13.32;100.00;99377.41;5104608;28;19963;-79
2023/03/31 08:49:19;;;;;;;;;;;;;;;13.46;100.00;99376.75;5106858;28;19919;-78
2023/03/31 08:51:47;;;;;;;;;;;;;;;13.66;100.00;99361.34;5104056;28;19927;-78
2023/03/31 08:54:32;;;;;;;;;;;;;;;13.81;100.00;99350.88;5102724;28;19932;-79
2023/03/31 08:56:58;;;;;;;;;;;;;;;14.02;100.00;99343.19;5105347;28;20279;-80
2023/03/31 08:59:31;;;;;;;;;;;;;;;14.21;100.00;99332.22;5102453;28;19946;-79
2023/03/31 09:02:17;;;;;;;;;;;;;;;14.20;100.00;99327.91;5109826;28;20302;-79
2023/03/31 09:05:01;;;;;;;;;;;;;;;14.32;100.00;99307.94;5102377;28;19920;-80
2023/03/31 09:07:45;;;;;;;;;;;;;;;14.41;100.00;99307.94;5102350;28;20314;-79
2023/03/31 09:10:10;;;;;;;;;;;;;;;14.51;100.00;99304.06;5103272;28;19965;-79
2023/03/31 09:12:35;;;;;;;;;;;;;;;14.60;100.00;99326.13;5102905;28;20333;-79
2023/03/31 09:15:04;;;;;;;;;;;;;;;14.57;100.00;99329.09;5106439;28;19920;-79
2023/03/31 09:17:29;;;;;;;;;;;;;;;14.58;100.00;99317.47;5102271;28;19934;-80
2023/03/31 09:19:57;;;;;;;;;;;;;;;14.46;100.00;99326.84;5104567;28;19919;-79
2023/03/31 09:22:25;;;;;;;;;;;;;;;14.44;100.00;99324.34;5084025;28;20486;-79
2023/03/31 09:24:57;;;;;;;;;;;;;;;14.53;100.00;99311.88;5105192;28;19924;-80
2023/03/31 09:27:26;;;;;;;;;;;;;;;14.66;100.00;99306.84;5102820;28;20276;-79
2023/03/31 09:29:54;;;;;;;;;;;;;;;14.80;100.00;99308.72;5105418;28;19920;-80
2023/03/31 09:32:21;;;;;;;;;;;;;;;14.89;100.00;99297.06;5102903;28;19950;-80
2023/03/31 09:34:50;;;;;;;;;;;;;;;14.86;100.00;99281.44;5105240;28;19932;-80
2023/03/31 09:37:16;;;;;;;;;;;;;;;14.88;100.00;99274.16;5101924;28;19920;-80
2023/03/31 09:39:41;;;;;;;;;;;;;;;15.05;100.00;99290.78;5102548;28;19965;-79
2023/03/31 09:42:09;;;;;;;;;;;;;;;15.10;100.00;99283.94;5104851;28;20337;-80
2023/03/31 09:44:39;;;;;;;;;;;;;;;15.32;100.00;99281.41;5103593;28;19991;-79
2023/03/31 09:47:07;;;;;;;;;;;;;;;15.46;100.00;99291.28;5100815;28;19928;-79
2023/03/31 09:49:33;;;;;;;;;;;;;;;15.54;100.00;99280.59;5103738;28;19920;-80
2023/03/31 09:52:14;;;;;;;;;;;;;;;15.69;100.00;99273.47;5103682;28;19919;-79
2023/03/31 09:54:43;;;;;;;;;;;;;;;15.65;100.00;99288.13;5101077;28;20260;-79
2023/03/31 09:57:13;;;;;;;;;;;;;;;15.80;100.00;99285.47;5105436;28;19927;-79
2023/03/31 09:59:40;;;;;;;;;;;;;;;15.90;100.00;99299.34;5101737;28;19920;-80
2023/03/31 10:02:29;;;;;;;;;;;;;;;15.98;100.00;99294.75;5107837;28;20010;-80
2023/03/31 10:04:55;;;;;;;;;;;;;;;15.89;100.00;99282.56;5103631;28;19920;-80
2023/03/31 10:07:21;;;;;;;;;;;;;;;15.87;100.00;99273.94;5104095;28;20279;-80
2023/03/31 10:10:10;;;;;;;;;;;;;;;15.97;100.00;99263.00;5105450;28;19973;-78
2023/03/31 10:12:35;;;;;;;;;;;;;;;16.04;100.00;99261.25;5099085;28;19931;-79
2023/03/31 10:15:10;;;;;;;;;;;;;;;16.07;100.00;99254.75;5104362;28;19976;-80
2023/03/31 10:17:40;;;;;;;;;;;;;;;16.19;100.00;99242.63;5102265;28;19920;-80
2023/03/31 10:20:17;;;;;;;;;;;;;;;16.16;100.00;99237.66;5098342;28;19928;-79
2023/03/31 10:22:43;;;;;;;;;;;;;;;16.20;100.00;99239.75;5097311;28;19948;-80
2023/03/31 10:25:09;;;;;;;;;;;;;;;16.29;100.00;99237.81;5084407;28;19920;-79
2023/03/31 10:27:38;;;;;;;;;;;;;;;16.23;100.00;99223.41;5119977;22;20280;-78
2023/03/31 10:30:08;;;;;;;;;;;;;;;16.18;100.00;99209.03;5103856;28;20244;-79
2023/03/31 10:32:38;;;;;;;;;;;;;;;16.22;100.00;99189.00;5105686;28;19920;-78
2023/03/31 10:35:05;;;;;;;;;;;;;;;16.16;100.00;99179.09;5103901;28;20348;-78
2023/03/31 10:37:33;;;;;;;;;;;;;;;16.11;100.00;99186.81;5104722;28;19924;-78
2023/03/31 10:40:04;;;;;;;;;;;;;;;16.09;100.00;99184.34;5087771;28;20019;-80
2023/03/31 10:42:30;;;;;;;;;;;;;;;16.07;100.00;99185.56;5104832;28;19923;-80
2023/03/31 10:45:12;;;;;;;;;;;;;;;16.13;100.00;99195.44;5103028;28;19929;-80
2023/03/31 10:47:38;;;;;;;;;;;;;;;16.23;100.00;99174.66;5106380;28;19920;-79
2023/03/31 10:50:11;;;;;;;;;;;;;;;16.27;99.61;99175.94;5083869;28;19923;-79
2023/03/31 10:52:42;;;;;;;;;;;;;;;16.23;98.37;99164.03;5099432;28;19924;-79
2023/03/31 10:55:11;;;;;;;;;;;;;;;16.22;98.46;99157.03;5105276;28;20033;-79
2023/03/31 10:57:53;;;;;;;;;;;;;;;16.23;98.64;99148.06;5106756;28;20470;-80
2023/03/31 11:00:31;;;;;;;;;;;;;;;16.28;98.22;99127.00;5086201;28;19985;-79
2023/03/31 11:02:56;;;;;;;;;;;;;;;16.38;97.79;99111.53;5102567;28;19920;-80
2023/03/31 11:06:00;;;;;;;;;;;;;;;16.48;97.03;99108.56;5105545;28;20385;-79
2023/03/31 11:08:26;;;;;;;;;;;;;;;16.63;96.27;99086.19;5021585;28;19985;-80
2023/03/31 11:10:57;;;;;;;;;;;;;;;16.73;95.02;99091.16;5019401;28;19964;-79
2023/03/31 11:13:32;;;;;;;;;;;;;;;16.77;93.80;99077.28;5021683;28;19927;-79
2023/03/31 11:16:17;;;;;;;;;;;;;;;16.85;93.84;99080.84;5023352;28;20017;-78
2023/03/31 11:18:42;;;;;;;;;;;;;;;16.94;93.75;99074.31;5018518;28;19921;-78
2023/03/31 11:21:08;;;;;;;;;;;;;;;16.90;93.91;99075.75;5021532;28;19989;-77
2023/03/31 11:23:41;;;;;;;;;;;;;;;16.89;93.61;99074.09;5006801;28;19932;-77
2023/03/31 11:26:10;;;;;;;;;;;;;;;16.89;92.15;99068.75;5027561;28;20297;-76
2023/03/31 11:28:41;;;;;;;;;;;;;;;16.94;92.11;99055.66;5021211;28;19929;-79
2023/03/31 11:31:31;;;;;;;;;;;;;;;17.05;91.47;99047.13;5020911;28;19925;-77
2023/03/31 11:34:07;;;;;;;;;;;;;;;17.09;90.41;99059.03;5005565;28;19981;-76
2023/03/31 11:36:41;;;;;;;;;;;;;;;17.10;90.22;99056.16;5007420;28;19932;-77
2023/03/31 11:39:09;;;;;;;;;;;;;;;17.15;90.01;99058.25;5061722;28;19920;-77
2023/03/31 11:41:39;;;;;;;;;;;;;;;17.22;90.64;99064.44;5091792;28;19981;-79
2023/03/31 11:44:08;;;;;;;;;;;;;;;17.30;89.86;99066.94;5094776;28;19949;-77
2023/03/31 11:46:48;;;;;;;;;;;;;;;17.25;88.18;99056.06;5111726;28;19935;-78
2023/03/31 11:49:26;;;;;;;;;;;;;;;17.34;88.85;99046.84;5110274;28;20151;-70
2023/03/31 11:51:55;;;;;;;;;;;;;;;17.47;89.17;99041.59;5108386;28;19968;-75
2023/03/31 11:54:39;;;;;;;;;;;;;;;17.53;87.28;99042.63;5108707;28;20011;-73
2023/03/31 11:57:20;;;;;;;;;;;;;;;17.38;87.51;99037.44;5111765;28;19924;-73
2023/03/31 11:59:49;;;;;;;;;;;;;;;17.28;88.70;99036.97;5106344;28;20397;-77
2023/03/31 12:02:31;;;;;;;;;;;;;;;17.27;89.26;99016.66;5107345;28;19926;-77
2023/03/31 12:04:58;;;;;;;;;;;;;;;17.18;89.14;99009.88;5108604;28;19922;-75
2023/03/31 12:07:24;;;;;;;;;;;;;;;17.15;89.35;99004.91;5104101;28;19963;-73
2023/03/31 12:10:10;;;;;;;;;;;;;;;17.36;88.74;99004.81;5105624;28;20387;-73
2023/03/31 12:12:41;;;;;;;;;;;;;;;17.58;86.61;99006.31;5108698;28;19920;-76
2023/03/31 12:15:08;;;;;;;;;;;;;;;17.78;84.37;98997.59;5109878;28;19920;-77
2023/03/31 12:17:36;;;;;;;;;;;;;;;17.81;84.30;98981.97;5105662;28;20280;-74
2023/03/31 12:20:10;;;;;;;;;;;;;;;17.74;84.50;98972.31;5107362;28;19927;-74
2023/03/31 12:22:43;;;;;;;;;;;;;;;17.60;86.28;98966.16;5107747;28;19927;-72
2023/03/31 12:25:21;;;;;;;;;;;;;;;17.67;86.55;98960.84;5104343;28;19919;-72
2023/03/31 12:27:53;;;;;;;;;;;;;;;17.85;85.13;98953.84;5104872;28;20371;-73
2023/03/31 12:30:27;;;;;;;;;;;;;;;17.94;84.76;98949.97;5106313;28;20003;-75
2023/03/31 12:32:55;;;;;;;;;;;;;;;17.94;84.14;98946.47;5105933;28;19919;-76
2023/03/31 12:35:26;;;;;;;;;;;;;;;17.89;84.35;98936.44;5108466;28;19919;-78
2023/03/31 12:38:19;;;;;;;;;;;;;;;17.73;84.67;98928.00;5108744;28;19924;-77
2023/03/31 12:40:45;;;;;;;;;;;;;;;17.61;85.72;98897.59;5105528;28;20268;-74
2023/03/31 12:43:10;;;;;;;;;;;;;;;17.57;86.19;98903.31;5089427;28;20287;-75
2023/03/31 12:45:40;;;;;;;;;;;;;;;17.88;85.69;98893.91;5107817;28;20299;-76
2023/03/31 12:48:09;;;;;;;;;;;;;;;18.05;84.52;98896.97;5085387;28;19926;-74